sensor_id;sensor_type;location;lat;lon;timestamp;P1;durP1;ratioP1;P2;durP2;ratioP2
26774;SDS011;14362;51.902;7.626;2022-10-31T00:01:40;21.17;;;15.18;;
26774;SDS011;14362;51.902;7.626;2022-10-31T00:05:43;23.02;;;16.88;;
26774;SDS011;14362;51.902;7.626;2022-10-31T00:09:45;32.63;;;16.27;;
26774;SDS011;14362;51.902;7.626;2022-10-31T00:13:47;21.65;;;16.02;;
26774;SDS011;14362;51.902;7.626;2022-10-31T00:17:48;23.90;;;15.88;;
26774;SDS011;14362;51.902;7.626;2022-10-31T00:21:52;24.15;;;15.82;;
26774;SDS011;14362;51.902;7.626;2022-10-31T00:25:53;24.15;;;17.85;;
26774;SDS011;14362;51.902;7.626;2022-10-31T00:29:55;21.70;;;16.08;;
26774;SDS011;14362;51.902;7.626;2022-10-31T00:33:56;24.95;;;17.02;;
26774;SDS011;14362;51.902;7.626;2022-10-31T00:37:59;23.50;;;17.13;;
26774;SDS011;14362;51.902;7.626;2022-10-31T00:42:01;24.55;;;17.35;;
26774;SDS011;14362;51.902;7.626;2022-10-31T00:46:02;24.98;;;18.40;;
26774;SDS011;14362;51.902;7.626;2022-10-31T00:50:04;26.40;;;18.02;;
26774;SDS011;14362;51.902;7.626;2022-10-31T00:54:07;25.20;;;17.90;;
26774;SDS011;14362;51.902;7.626;2022-10-31T00:58:09;23.25;;;17.77;;
26774;SDS011;14362;51.902;7.626;2022-10-31T01:02:10;29.13;;;18.95;;
26774;SDS011;14362;51.902;7.626;2022-10-31T01:06:12;25.35;;;17.45;;
26774;SDS011;14362;51.902;7.626;2022-10-31T01:10:15;23.38;;;16.90;;
26774;SDS011;14362;51.902;7.626;2022-10-31T01:14:17;24.00;;;17.42;;
26774;SDS011;14362;51.902;7.626;2022-10-31T01:18:19;27.23;;;18.30;;
26774;SDS011;14362;51.902;7.626;2022-10-31T01:22:20;28.20;;;18.25;;
26774;SDS011;14362;51.902;7.626;2022-10-31T01:26:23;22.83;;;17.95;;
26774;SDS011;14362;51.902;7.626;2022-10-31T01:30:26;24.30;;;18.67;;
26774;SDS011;14362;51.902;7.626;2022-10-31T01:34:28;24.38;;;17.75;;
26774;SDS011;14362;51.902;7.626;2022-10-31T01:38:29;24.85;;;18.08;;
26774;SDS011;14362;51.902;7.626;2022-10-31T01:42:32;27.02;;;19.58;;
26774;SDS011;14362;51.902;7.626;2022-10-31T01:46:35;28.77;;;19.13;;
26774;SDS011;14362;51.902;7.626;2022-10-31T01:50:38;25.58;;;18.38;;
26774;SDS011;14362;51.902;7.626;2022-10-31T01:54:41;26.92;;;18.65;;
26774;SDS011;14362;51.902;7.626;2022-10-31T01:58:48;25.38;;;18.25;;
26774;SDS011;14362;51.902;7.626;2022-10-31T02:02:49;28.00;;;17.55;;
26774;SDS011;14362;51.902;7.626;2022-10-31T02:06:53;22.15;;;17.05;;
26774;SDS011;14362;51.902;7.626;2022-10-31T02:11:00;24.85;;;18.38;;
26774;SDS011;14362;51.902;7.626;2022-10-31T02:15:03;27.30;;;18.52;;
26774;SDS011;14362;51.902;7.626;2022-10-31T02:19:06;25.85;;;16.98;;
26774;SDS011;14362;51.902;7.626;2022-10-31T02:23:19;25.17;;;18.67;;
26774;SDS011;14362;51.902;7.626;2022-10-31T02:27:42;28.58;;;20.30;;
26774;SDS011;14362;51.902;7.626;2022-10-31T02:32:02;30.15;;;19.75;;
26774;SDS011;14362;51.902;7.626;2022-10-31T02:36:13;32.38;;;20.30;;
26774;SDS011;14362;51.902;7.626;2022-10-31T02:40:22;30.83;;;21.00;;
26774;SDS011;14362;51.902;7.626;2022-10-31T02:48:32;28.50;;;20.10;;
26774;SDS011;14362;51.902;7.626;2022-10-31T02:52:37;30.15;;;20.85;;
26774;SDS011;14362;51.902;7.626;2022-10-31T02:56:38;33.47;;;20.02;;
26774;SDS011;14362;51.902;7.626;2022-10-31T03:00:41;30.45;;;21.10;;
26774;SDS011;14362;51.902;7.626;2022-10-31T03:04:59;26.80;;;20.65;;
26774;SDS011;14362;51.902;7.626;2022-10-31T03:09:08;27.77;;;20.23;;
26774;SDS011;14362;51.902;7.626;2022-10-31T03:13:18;26.55;;;20.52;;
26774;SDS011;14362;51.902;7.626;2022-10-31T03:17:26;35.22;;;20.63;;
26774;SDS011;14362;51.902;7.626;2022-10-31T03:21:37;27.50;;;20.65;;
26774;SDS011;14362;51.902;7.626;2022-10-31T03:25:43;31.00;;;19.73;;
26774;SDS011;14362;51.902;7.626;2022-10-31T03:29:47;28.27;;;20.83;;
26774;SDS011;14362;51.902;7.626;2022-10-31T03:33:51;32.35;;;21.23;;
26774;SDS011;14362;51.902;7.626;2022-10-31T03:37:56;29.65;;;20.63;;
26774;SDS011;14362;51.902;7.626;2022-10-31T03:42:02;25.80;;;19.30;;
26774;SDS011;14362;51.902;7.626;2022-10-31T03:46:08;27.50;;;18.98;;
26774;SDS011;14362;51.902;7.626;2022-10-31T03:50:10;23.77;;;18.60;;
26774;SDS011;14362;51.902;7.626;2022-10-31T03:54:18;27.50;;;19.50;;
26774;SDS011;14362;51.902;7.626;2022-10-31T03:58:25;24.92;;;19.13;;
26774;SDS011;14362;51.902;7.626;2022-10-31T04:02:32;26.38;;;19.70;;
26774;SDS011;14362;51.902;7.626;2022-10-31T04:06:36;26.83;;;19.90;;
26774;SDS011;14362;51.902;7.626;2022-10-31T04:10:42;31.20;;;20.80;;
26774;SDS011;14362;51.902;7.626;2022-10-31T04:14:46;26.83;;;20.55;;
26774;SDS011;14362;51.902;7.626;2022-10-31T04:18:50;32.90;;;20.37;;
26774;SDS011;14362;51.902;7.626;2022-10-31T04:22:51;31.42;;;20.13;;
26774;SDS011;14362;51.902;7.626;2022-10-31T04:26:54;25.42;;;20.35;;
26774;SDS011;14362;51.902;7.626;2022-10-31T04:30:55;24.10;;;19.50;;
26774;SDS011;14362;51.902;7.626;2022-10-31T04:34:57;28.65;;;20.27;;
26774;SDS011;14362;51.902;7.626;2022-10-31T04:38:58;29.02;;;20.25;;
26774;SDS011;14362;51.902;7.626;2022-10-31T04:43:01;25.25;;;19.40;;
26774;SDS011;14362;51.902;7.626;2022-10-31T04:47:02;29.85;;;20.63;;
26774;SDS011;14362;51.902;7.626;2022-10-31T04:51:04;26.20;;;19.80;;
26774;SDS011;14362;51.902;7.626;2022-10-31T04:55:06;28.92;;;20.23;;
26774;SDS011;14362;51.902;7.626;2022-10-31T04:59:09;26.35;;;20.02;;
26774;SDS011;14362;51.902;7.626;2022-10-31T05:03:11;27.83;;;20.73;;
26774;SDS011;14362;51.902;7.626;2022-10-31T05:07:12;28.83;;;19.15;;
26774;SDS011;14362;51.902;7.626;2022-10-31T05:11:13;28.08;;;20.70;;
26774;SDS011;14362;51.902;7.626;2022-10-31T05:15:17;23.83;;;19.02;;
26774;SDS011;14362;51.902;7.626;2022-10-31T05:19:19;26.87;;;20.40;;
26774;SDS011;14362;51.902;7.626;2022-10-31T05:23:20;25.65;;;19.20;;
26774;SDS011;14362;51.902;7.626;2022-10-31T05:27:22;29.80;;;21.63;;
26774;SDS011;14362;51.902;7.626;2022-10-31T05:31:24;26.20;;;20.42;;
26774;SDS011;14362;51.902;7.626;2022-10-31T05:35:26;26.05;;;20.73;;
26774;SDS011;14362;51.902;7.626;2022-10-31T05:39:29;27.17;;;20.15;;
26774;SDS011;14362;51.902;7.626;2022-10-31T05:43:30;27.67;;;20.60;;
26774;SDS011;14362;51.902;7.626;2022-10-31T05:47:33;27.52;;;20.33;;
26774;SDS011;14362;51.902;7.626;2022-10-31T05:51:34;28.17;;;19.98;;
26774;SDS011;14362;51.902;7.626;2022-10-31T05:55:36;28.90;;;20.55;;
26774;SDS011;14362;51.902;7.626;2022-10-31T05:59:37;28.83;;;20.48;;
26774;SDS011;14362;51.902;7.626;2022-10-31T06:03:40;26.23;;;20.95;;
26774;SDS011;14362;51.902;7.626;2022-10-31T06:07:41;29.17;;;21.33;;
26774;SDS011;14362;51.902;7.626;2022-10-31T06:11:43;24.25;;;20.10;;
26774;SDS011;14362;51.902;7.626;2022-10-31T06:15:44;26.02;;;20.70;;
26774;SDS011;14362;51.902;7.626;2022-10-31T06:19:47;26.25;;;20.40;;
26774;SDS011;14362;51.902;7.626;2022-10-31T06:23:48;28.63;;;21.10;;
26774;SDS011;14362;51.902;7.626;2022-10-31T06:27:50;33.58;;;23.40;;
26774;SDS011;14362;51.902;7.626;2022-10-31T06:31:51;33.15;;;22.50;;
26774;SDS011;14362;51.902;7.626;2022-10-31T06:35:54;33.00;;;24.95;;
26774;SDS011;14362;51.902;7.626;2022-10-31T06:39:55;30.58;;;23.25;;
26774;SDS011;14362;51.902;7.626;2022-10-31T06:43:56;32.80;;;21.70;;
26774;SDS011;14362;51.902;7.626;2022-10-31T06:47:58;30.38;;;21.50;;
26774;SDS011;14362;51.902;7.626;2022-10-31T06:52:01;25.08;;;20.00;;
26774;SDS011;14362;51.902;7.626;2022-10-31T06:56:02;27.50;;;20.02;;
26774;SDS011;14362;51.902;7.626;2022-10-31T07:00:05;27.40;;;21.27;;
26774;SDS011;14362;51.902;7.626;2022-10-31T07:04:08;30.98;;;21.67;;
26774;SDS011;14362;51.902;7.626;2022-10-31T07:08:11;27.88;;;21.45;;
26774;SDS011;14362;51.902;7.626;2022-10-31T07:12:15;32.97;;;23.17;;
26774;SDS011;14362;51.902;7.626;2022-10-31T07:16:16;29.00;;;22.75;;
26774;SDS011;14362;51.902;7.626;2022-10-31T07:20:18;27.42;;;22.20;;
26774;SDS011;14362;51.902;7.626;2022-10-31T07:24:21;27.33;;;21.05;;
26774;SDS011;14362;51.902;7.626;2022-10-31T07:28:22;25.70;;;20.25;;
26774;SDS011;14362;51.902;7.626;2022-10-31T07:32:24;29.00;;;21.85;;
26774;SDS011;14362;51.902;7.626;2022-10-31T07:36:25;26.83;;;21.02;;
26774;SDS011;14362;51.902;7.626;2022-10-31T07:40:28;30.02;;;19.85;;
26774;SDS011;14362;51.902;7.626;2022-10-31T07:44:29;28.60;;;21.83;;
26774;SDS011;14362;51.902;7.626;2022-10-31T07:48:31;24.85;;;18.60;;
26774;SDS011;14362;51.902;7.626;2022-10-31T07:52:32;23.25;;;20.02;;
26774;SDS011;14362;51.902;7.626;2022-10-31T07:56:35;21.75;;;18.42;;
26774;SDS011;14362;51.902;7.626;2022-10-31T08:00:37;27.08;;;21.90;;
26774;SDS011;14362;51.902;7.626;2022-10-31T08:04:39;26.02;;;21.15;;
26774;SDS011;14362;51.902;7.626;2022-10-31T08:08:41;30.25;;;23.02;;
26774;SDS011;14362;51.902;7.626;2022-10-31T08:12:44;27.80;;;23.10;;
26774;SDS011;14362;51.902;7.626;2022-10-31T08:16:45;28.33;;;21.58;;
26774;SDS011;14362;51.902;7.626;2022-10-31T08:20:46;29.27;;;22.92;;
26774;SDS011;14362;51.902;7.626;2022-10-31T08:24:49;32.92;;;23.98;;
26774;SDS011;14362;51.902;7.626;2022-10-31T08:28:51;38.60;;;25.13;;
26774;SDS011;14362;51.902;7.626;2022-10-31T08:32:58;34.87;;;24.90;;
26774;SDS011;14362;51.902;7.626;2022-10-31T08:37:01;31.15;;;24.42;;
26774;SDS011;14362;51.902;7.626;2022-10-31T08:41:02;30.92;;;23.55;;
26774;SDS011;14362;51.902;7.626;2022-10-31T08:45:05;30.73;;;23.33;;
26774;SDS011;14362;51.902;7.626;2022-10-31T08:49:07;30.30;;;21.35;;
26774;SDS011;14362;51.902;7.626;2022-10-31T08:53:09;29.17;;;23.63;;
26774;SDS011;14362;51.902;7.626;2022-10-31T08:57:12;31.17;;;23.70;;
26774;SDS011;14362;51.902;7.626;2022-10-31T09:01:15;33.60;;;23.80;;
26774;SDS011;14362;51.902;7.626;2022-10-31T09:05:16;31.55;;;22.60;;
26774;SDS011;14362;51.902;7.626;2022-10-31T09:09:18;32.40;;;24.17;;
26774;SDS011;14362;51.902;7.626;2022-10-31T09:13:20;36.70;;;24.35;;
26774;SDS011;14362;51.902;7.626;2022-10-31T09:17:23;38.42;;;23.35;;
26774;SDS011;14362;51.902;7.626;2022-10-31T09:21:26;33.42;;;24.13;;
26774;SDS011;14362;51.902;7.626;2022-10-31T09:25:28;30.48;;;23.45;;
26774;SDS011;14362;51.902;7.626;2022-10-31T09:29:29;30.27;;;23.02;;
26774;SDS011;14362;51.902;7.626;2022-10-31T09:33:32;29.67;;;23.42;;
26774;SDS011;14362;51.902;7.626;2022-10-31T09:37:33;26.40;;;21.67;;
26774;SDS011;14362;51.902;7.626;2022-10-31T09:41:40;33.25;;;23.83;;
26774;SDS011;14362;51.902;7.626;2022-10-31T09:45:56;31.05;;;22.77;;
26774;SDS011;14362;51.902;7.626;2022-10-31T09:50:10;36.08;;;23.65;;
26774;SDS011;14362;51.902;7.626;2022-10-31T09:54:16;29.00;;;22.40;;
26774;SDS011;14362;51.902;7.626;2022-10-31T09:58:23;37.38;;;25.95;;
26774;SDS011;14362;51.902;7.626;2022-10-31T10:02:29;33.83;;;22.70;;
26774;SDS011;14362;51.902;7.626;2022-10-31T10:06:37;37.78;;;23.92;;
26774;SDS011;14362;51.902;7.626;2022-10-31T10:10:45;34.60;;;25.08;;
26774;SDS011;14362;51.902;7.626;2022-10-31T10:14:54;34.13;;;24.42;;
26774;SDS011;14362;51.902;7.626;2022-10-31T10:19:13;33.55;;;22.95;;
26774;SDS011;14362;51.902;7.626;2022-10-31T10:23:29;29.98;;;22.20;;
26774;SDS011;14362;51.902;7.626;2022-10-31T10:27:41;30.08;;;22.40;;
26774;SDS011;14362;51.902;7.626;2022-10-31T10:31:48;32.47;;;21.85;;
26774;SDS011;14362;51.902;7.626;2022-10-31T10:35:53;33.83;;;21.73;;
26774;SDS011;14362;51.902;7.626;2022-10-31T10:40:06;32.13;;;22.38;;
26774;SDS011;14362;51.902;7.626;2022-10-31T10:44:12;34.17;;;21.63;;
26774;SDS011;14362;51.902;7.626;2022-10-31T10:48:16;34.25;;;22.35;;
26774;SDS011;14362;51.902;7.626;2022-10-31T10:52:29;28.67;;;21.05;;
26774;SDS011;14362;51.902;7.626;2022-10-31T10:56:50;27.95;;;20.95;;
26774;SDS011;14362;51.902;7.626;2022-10-31T11:01:00;32.35;;;20.88;;
26774;SDS011;14362;51.902;7.626;2022-10-31T11:05:01;30.73;;;19.45;;
26774;SDS011;14362;51.902;7.626;2022-10-31T11:09:08;29.55;;;20.45;;
26774;SDS011;14362;51.902;7.626;2022-10-31T11:13:21;29.80;;;20.88;;
26774;SDS011;14362;51.902;7.626;2022-10-31T11:17:26;32.03;;;20.85;;
26774;SDS011;14362;51.902;7.626;2022-10-31T11:21:30;31.05;;;19.75;;
26774;SDS011;14362;51.902;7.626;2022-10-31T11:25:33;29.38;;;19.77;;
26774;SDS011;14362;51.902;7.626;2022-10-31T11:29:36;27.67;;;18.50;;
26774;SDS011;14362;51.902;7.626;2022-10-31T11:33:37;28.17;;;17.85;;
26774;SDS011;14362;51.902;7.626;2022-10-31T11:37:46;29.73;;;19.88;;
26774;SDS011;14362;51.902;7.626;2022-10-31T11:41:50;29.97;;;19.43;;
26774;SDS011;14362;51.902;7.626;2022-10-31T11:45:56;27.60;;;19.10;;
26774;SDS011;14362;51.902;7.626;2022-10-31T11:49:58;26.30;;;17.75;;
26774;SDS011;14362;51.902;7.626;2022-10-31T11:54:03;28.10;;;17.33;;
26774;SDS011;14362;51.902;7.626;2022-10-31T11:58:18;29.27;;;17.80;;
26774;SDS011;14362;51.902;7.626;2022-10-31T12:02:22;27.20;;;18.50;;
26774;SDS011;14362;51.902;7.626;2022-10-31T12:06:26;27.40;;;17.80;;
26774;SDS011;14362;51.902;7.626;2022-10-31T12:10:31;27.73;;;17.58;;
26774;SDS011;14362;51.902;7.626;2022-10-31T12:14:46;26.15;;;17.50;;
26774;SDS011;14362;51.902;7.626;2022-10-31T12:18:59;35.40;;;20.23;;
26774;SDS011;14362;51.902;7.626;2022-10-31T12:23:06;28.27;;;19.15;;
26774;SDS011;14362;51.902;7.626;2022-10-31T12:27:17;32.47;;;18.30;;
26774;SDS011;14362;51.902;7.626;2022-10-31T12:31:32;26.88;;;17.33;;
26774;SDS011;14362;51.902;7.626;2022-10-31T12:35:46;32.05;;;19.13;;
26774;SDS011;14362;51.902;7.626;2022-10-31T12:39:59;30.58;;;18.90;;
26774;SDS011;14362;51.902;7.626;2022-10-31T12:44:14;30.73;;;18.15;;
26774;SDS011;14362;51.902;7.626;2022-10-31T12:48:32;31.13;;;19.20;;
26774;SDS011;14362;51.902;7.626;2022-10-31T12:52:48;32.08;;;19.13;;
26774;SDS011;14362;51.902;7.626;2022-10-31T12:57:00;29.73;;;18.57;;
26774;SDS011;14362;51.902;7.626;2022-10-31T13:01:18;29.30;;;18.20;;
26774;SDS011;14362;51.902;7.626;2022-10-31T13:05:25;30.90;;;18.88;;
26774;SDS011;14362;51.902;7.626;2022-10-31T13:09:32;32.17;;;18.85;;
26774;SDS011;14362;51.902;7.626;2022-10-31T13:13:40;34.17;;;19.60;;
26774;SDS011;14362;51.902;7.626;2022-10-31T13:17:45;35.13;;;20.05;;
26774;SDS011;14362;51.902;7.626;2022-10-31T13:21:51;35.78;;;20.15;;
26774;SDS011;14362;51.902;7.626;2022-10-31T13:26:01;35.45;;;21.08;;
26774;SDS011;14362;51.902;7.626;2022-10-31T13:30:12;40.65;;;20.88;;
26774;SDS011;14362;51.902;7.626;2022-10-31T13:34:25;35.40;;;21.58;;
26774;SDS011;14362;51.902;7.626;2022-10-31T13:38:30;35.13;;;20.75;;
26774;SDS011;14362;51.902;7.626;2022-10-31T13:42:42;36.22;;;20.90;;
26774;SDS011;14362;51.902;7.626;2022-10-31T13:46:53;36.63;;;21.33;;
26774;SDS011;14362;51.902;7.626;2022-10-31T13:50:56;32.65;;;19.92;;
26774;SDS011;14362;51.902;7.626;2022-10-31T13:54:59;35.28;;;21.13;;
26774;SDS011;14362;51.902;7.626;2022-10-31T13:59:03;32.20;;;21.50;;
26774;SDS011;14362;51.902;7.626;2022-10-31T14:03:19;32.70;;;20.25;;
26774;SDS011;14362;51.902;7.626;2022-10-31T14:07:21;33.53;;;21.02;;
26774;SDS011;14362;51.902;7.626;2022-10-31T14:11:24;38.08;;;22.40;;
26774;SDS011;14362;51.902;7.626;2022-10-31T14:15:29;33.55;;;22.10;;
26774;SDS011;14362;51.902;7.626;2022-10-31T14:19:31;33.17;;;20.50;;
26774;SDS011;14362;51.902;7.626;2022-10-31T14:23:36;37.70;;;22.52;;
26774;SDS011;14362;51.902;7.626;2022-10-31T14:27:44;37.03;;;21.38;;
26774;SDS011;14362;51.902;7.626;2022-10-31T14:31:52;37.33;;;23.15;;
26774;SDS011;14362;51.902;7.626;2022-10-31T14:35:57;38.60;;;22.52;;
26774;SDS011;14362;51.902;7.626;2022-10-31T14:40:17;35.85;;;22.35;;
26774;SDS011;14362;51.902;7.626;2022-10-31T14:49:11;36.03;;;23.33;;
26774;SDS011;14362;51.902;7.626;2022-10-31T14:53:20;34.22;;;21.77;;
26774;SDS011;14362;51.902;7.626;2022-10-31T14:57:25;39.00;;;23.35;;
26774;SDS011;14362;51.902;7.626;2022-10-31T15:01:30;34.70;;;22.40;;
26774;SDS011;14362;51.902;7.626;2022-10-31T15:05:40;36.28;;;22.23;;
26774;SDS011;14362;51.902;7.626;2022-10-31T15:09:43;32.10;;;22.55;;
26774;SDS011;14362;51.902;7.626;2022-10-31T15:13:46;31.75;;;22.92;;
26774;SDS011;14362;51.902;7.626;2022-10-31T15:17:51;33.38;;;23.38;;
26774;SDS011;14362;51.902;7.626;2022-10-31T15:21:56;33.55;;;21.33;;
26774;SDS011;14362;51.902;7.626;2022-10-31T15:25:59;34.35;;;22.30;;
26774;SDS011;14362;51.902;7.626;2022-10-31T15:30:01;30.55;;;20.92;;
26774;SDS011;14362;51.902;7.626;2022-10-31T15:34:03;33.10;;;22.63;;
26774;SDS011;14362;51.902;7.626;2022-10-31T15:38:09;36.85;;;24.27;;
26774;SDS011;14362;51.902;7.626;2022-10-31T15:42:16;33.88;;;22.77;;
26774;SDS011;14362;51.902;7.626;2022-10-31T15:46:21;33.83;;;22.55;;
26774;SDS011;14362;51.902;7.626;2022-10-31T15:50:24;33.00;;;22.17;;
26774;SDS011;14362;51.902;7.626;2022-10-31T15:54:32;32.38;;;22.13;;
26774;SDS011;14362;51.902;7.626;2022-10-31T15:58:39;33.35;;;21.05;;
26774;SDS011;14362;51.902;7.626;2022-10-31T16:02:43;35.75;;;21.90;;
26774;SDS011;14362;51.902;7.626;2022-10-31T16:06:45;34.28;;;21.40;;
26774;SDS011;14362;51.902;7.626;2022-10-31T16:11:01;29.67;;;20.60;;
26774;SDS011;14362;51.902;7.626;2022-10-31T16:15:18;30.70;;;20.77;;
26774;SDS011;14362;51.902;7.626;2022-10-31T16:19:22;33.23;;;20.93;;
26774;SDS011;14362;51.902;7.626;2022-10-31T16:23:25;29.02;;;19.63;;
26774;SDS011;14362;51.902;7.626;2022-10-31T16:27:30;30.30;;;19.35;;
26774;SDS011;14362;51.902;7.626;2022-10-31T16:31:35;30.45;;;20.20;;
26774;SDS011;14362;51.902;7.626;2022-10-31T16:35:39;30.08;;;19.73;;
26774;SDS011;14362;51.902;7.626;2022-10-31T16:39:40;32.08;;;20.45;;
26774;SDS011;14362;51.902;7.626;2022-10-31T16:43:43;27.30;;;19.77;;
26774;SDS011;14362;51.902;7.626;2022-10-31T16:47:44;28.40;;;18.27;;
26774;SDS011;14362;51.902;7.626;2022-10-31T16:51:46;31.67;;;18.35;;
26774;SDS011;14362;51.902;7.626;2022-10-31T16:55:48;25.77;;;18.20;;
26774;SDS011;14362;51.902;7.626;2022-10-31T16:59:55;28.35;;;17.92;;
26774;SDS011;14362;51.902;7.626;2022-10-31T17:03:58;29.67;;;20.05;;
26774;SDS011;14362;51.902;7.626;2022-10-31T17:07:59;26.45;;;17.88;;
26774;SDS011;14362;51.902;7.626;2022-10-31T17:12:01;28.05;;;18.38;;
26774;SDS011;14362;51.902;7.626;2022-10-31T17:16:04;30.38;;;18.50;;
26774;SDS011;14362;51.902;7.626;2022-10-31T17:20:10;28.77;;;18.83;;
26774;SDS011;14362;51.902;7.626;2022-10-31T17:24:17;30.15;;;18.92;;
26774;SDS011;14362;51.902;7.626;2022-10-31T17:28:19;27.13;;;18.73;;
26774;SDS011;14362;51.902;7.626;2022-10-31T17:32:22;28.45;;;18.20;;
26774;SDS011;14362;51.902;7.626;2022-10-31T17:36:23;30.70;;;20.48;;
26774;SDS011;14362;51.902;7.626;2022-10-31T17:40:24;27.40;;;19.33;;
26774;SDS011;14362;51.902;7.626;2022-10-31T17:44:26;25.20;;;19.42;;
26774;SDS011;14362;51.902;7.626;2022-10-31T17:48:29;31.05;;;19.20;;
26774;SDS011;14362;51.902;7.626;2022-10-31T17:52:31;28.60;;;18.90;;
26774;SDS011;14362;51.902;7.626;2022-10-31T17:56:32;26.95;;;18.30;;
26774;SDS011;14362;51.902;7.626;2022-10-31T18:00:33;29.65;;;19.42;;
26774;SDS011;14362;51.902;7.626;2022-10-31T18:04:36;25.30;;;18.48;;
26774;SDS011;14362;51.902;7.626;2022-10-31T18:08:39;29.83;;;20.33;;
26774;SDS011;14362;51.902;7.626;2022-10-31T18:12:41;30.17;;;19.67;;
26774;SDS011;14362;51.902;7.626;2022-10-31T18:16:42;29.48;;;18.83;;
26774;SDS011;14362;51.902;7.626;2022-10-31T18:20:45;34.78;;;19.38;;
26774;SDS011;14362;51.902;7.626;2022-10-31T18:24:47;27.17;;;19.30;;
26774;SDS011;14362;51.902;7.626;2022-10-31T18:28:48;27.15;;;20.40;;
26774;SDS011;14362;51.902;7.626;2022-10-31T18:32:50;29.05;;;19.20;;
26774;SDS011;14362;51.902;7.626;2022-10-31T18:36:53;38.25;;;19.95;;
26774;SDS011;14362;51.902;7.626;2022-10-31T18:40:55;27.45;;;19.23;;
26774;SDS011;14362;51.902;7.626;2022-10-31T18:44:56;28.30;;;19.75;;
26774;SDS011;14362;51.902;7.626;2022-10-31T18:48:58;29.13;;;18.63;;
26774;SDS011;14362;51.902;7.626;2022-10-31T18:53:01;30.27;;;19.33;;
26774;SDS011;14362;51.902;7.626;2022-10-31T18:57:02;25.05;;;18.55;;
26774;SDS011;14362;51.902;7.626;2022-10-31T19:01:04;29.58;;;18.98;;
26774;SDS011;14362;51.902;7.626;2022-10-31T19:05:07;28.35;;;18.58;;
26774;SDS011;14362;51.902;7.626;2022-10-31T19:09:10;28.55;;;18.42;;
26774;SDS011;14362;51.902;7.626;2022-10-31T19:13:11;27.83;;;19.25;;
26774;SDS011;14362;51.902;7.626;2022-10-31T19:17:13;28.38;;;18.10;;
26774;SDS011;14362;51.902;7.626;2022-10-31T19:21:15;23.63;;;17.77;;
26774;SDS011;14362;51.902;7.626;2022-10-31T19:25:19;24.85;;;16.95;;
26774;SDS011;14362;51.902;7.626;2022-10-31T19:29:20;24.90;;;17.35;;
26774;SDS011;14362;51.902;7.626;2022-10-31T19:33:22;30.55;;;19.23;;
26774;SDS011;14362;51.902;7.626;2022-10-31T19:37:25;27.20;;;18.25;;
26774;SDS011;14362;51.902;7.626;2022-10-31T19:41:28;26.65;;;19.75;;
26774;SDS011;14362;51.902;7.626;2022-10-31T19:45:30;25.30;;;18.38;;
26774;SDS011;14362;51.902;7.626;2022-10-31T19:49:31;28.92;;;19.10;;
26774;SDS011;14362;51.902;7.626;2022-10-31T19:53:33;27.35;;;18.75;;
26774;SDS011;14362;51.902;7.626;2022-10-31T19:57:36;25.15;;;18.23;;
26774;SDS011;14362;51.902;7.626;2022-10-31T20:01:37;26.80;;;18.30;;
26774;SDS011;14362;51.902;7.626;2022-10-31T20:05:39;28.48;;;18.60;;
26774;SDS011;14362;51.902;7.626;2022-10-31T20:09:43;27.65;;;18.48;;
26774;SDS011;14362;51.902;7.626;2022-10-31T20:13:46;25.83;;;17.95;;
26774;SDS011;14362;51.902;7.626;2022-10-31T20:17:47;26.77;;;17.65;;
26774;SDS011;14362;51.902;7.626;2022-10-31T20:21:49;25.90;;;16.95;;
26774;SDS011;14362;51.902;7.626;2022-10-31T20:25:50;26.65;;;18.13;;
26774;SDS011;14362;51.902;7.626;2022-10-31T20:29:53;25.02;;;17.25;;
26774;SDS011;14362;51.902;7.626;2022-10-31T20:33:54;26.40;;;18.08;;
26774;SDS011;14362;51.902;7.626;2022-10-31T20:37:56;32.13;;;18.30;;
26774;SDS011;14362;51.902;7.626;2022-10-31T20:41:57;29.25;;;18.27;;
26774;SDS011;14362;51.902;7.626;2022-10-31T20:46:01;28.67;;;17.92;;
26774;SDS011;14362;51.902;7.626;2022-10-31T20:50:03;27.08;;;16.90;;
26774;SDS011;14362;51.902;7.626;2022-10-31T20:54:05;25.25;;;16.15;;
26774;SDS011;14362;51.902;7.626;2022-10-31T20:58:06;26.70;;;15.68;;
26774;SDS011;14362;51.902;7.626;2022-10-31T21:02:09;25.92;;;15.32;;
26774;SDS011;14362;51.902;7.626;2022-10-31T21:06:11;20.13;;;14.85;;
26774;SDS011;14362;51.902;7.626;2022-10-31T21:10:13;22.40;;;14.57;;
26774;SDS011;14362;51.902;7.626;2022-10-31T21:14:17;22.73;;;13.30;;
26774;SDS011;14362;51.902;7.626;2022-10-31T21:18:20;20.75;;;14.20;;
26774;SDS011;14362;51.902;7.626;2022-10-31T21:22:21;20.08;;;13.18;;
26774;SDS011;14362;51.902;7.626;2022-10-31T21:26:23;19.48;;;13.30;;
26774;SDS011;14362;51.902;7.626;2022-10-31T21:30:26;19.42;;;12.82;;
26774;SDS011;14362;51.902;7.626;2022-10-31T21:34:29;23.85;;;13.10;;
26774;SDS011;14362;51.902;7.626;2022-10-31T21:38:30;18.38;;;12.90;;
26774;SDS011;14362;51.902;7.626;2022-10-31T21:42:32;21.42;;;12.32;;
26774;SDS011;14362;51.902;7.626;2022-10-31T21:46:34;18.13;;;11.80;;
26774;SDS011;14362;51.902;7.626;2022-10-31T21:50:38;20.05;;;12.30;;
26774;SDS011;14362;51.902;7.626;2022-10-31T21:54:40;22.95;;;12.70;;
26774;SDS011;14362;51.902;7.626;2022-10-31T21:58:41;18.10;;;12.45;;
26774;SDS011;14362;51.902;7.626;2022-10-31T22:02:43;18.48;;;12.57;;
26774;SDS011;14362;51.902;7.626;2022-10-31T22:06:45;16.60;;;12.20;;
26774;SDS011;14362;51.902;7.626;2022-10-31T22:10:47;17.70;;;12.30;;
26774;SDS011;14362;51.902;7.626;2022-10-31T22:14:48;17.50;;;12.10;;
26774;SDS011;14362;51.902;7.626;2022-10-31T22:18:50;20.42;;;12.63;;
26774;SDS011;14362;51.902;7.626;2022-10-31T22:22:54;17.55;;;11.73;;
26774;SDS011;14362;51.902;7.626;2022-10-31T22:26:55;19.67;;;11.35;;
26774;SDS011;14362;51.902;7.626;2022-10-31T22:30:57;17.33;;;11.40;;
26774;SDS011;14362;51.902;7.626;2022-10-31T22:34:58;14.77;;;10.80;;
26774;SDS011;14362;51.902;7.626;2022-10-31T22:39:02;16.92;;;11.60;;
26774;SDS011;14362;51.902;7.626;2022-10-31T22:43:04;17.53;;;10.17;;
26774;SDS011;14362;51.902;7.626;2022-10-31T22:47:06;14.75;;;10.25;;
26774;SDS011;14362;51.902;7.626;2022-10-31T22:51:08;15.60;;;9.75;;
26774;SDS011;14362;51.902;7.626;2022-10-31T22:55:12;16.70;;;8.75;;
26774;SDS011;14362;51.902;7.626;2022-10-31T22:59:14;16.00;;;9.38;;
26774;SDS011;14362;51.902;7.626;2022-10-31T23:03:16;15.43;;;10.05;;
26774;SDS011;14362;51.902;7.626;2022-10-31T23:07:18;22.52;;;9.15;;
26774;SDS011;14362;51.902;7.626;2022-10-31T23:11:21;11.40;;;9.02;;
26774;SDS011;14362;51.902;7.626;2022-10-31T23:15:23;14.73;;;9.55;;
26774;SDS011;14362;51.902;7.626;2022-10-31T23:19:26;14.25;;;8.77;;
26774;SDS011;14362;51.902;7.626;2022-10-31T23:23:31;15.50;;;8.15;;
26774;SDS011;14362;51.902;7.626;2022-10-31T23:27:35;13.48;;;8.85;;
26774;SDS011;14362;51.902;7.626;2022-10-31T23:31:36;11.30;;;8.05;;
26774;SDS011;14362;51.902;7.626;2022-10-31T23:35:37;15.60;;;8.20;;
26774;SDS011;14362;51.902;7.626;2022-10-31T23:39:39;17.63;;;8.90;;
26774;SDS011;14362;51.902;7.626;2022-10-31T23:43:42;14.77;;;7.97;;
26774;SDS011;14362;51.902;7.626;2022-10-31T23:47:43;11.38;;;8.13;;
26774;SDS011;14362;51.902;7.626;2022-10-31T23:51:45;11.80;;;7.65;;
26774;SDS011;14362;51.902;7.626;2022-10-31T23:55:46;11.88;;;7.03;;